sensor_id;sensor_type;location;lat;lon;timestamp;pressure;altitude;pressure_sealevel;temperature;humidity
28267;BME280;15525;45.568;5.448;2023-04-24T00:02:10;97546.13;;;16.37;55.98
28267;BME280;15525;45.568;5.448;2023-04-24T00:04:37;97519.75;;;16.26;55.74
28267;BME280;15525;45.568;5.448;2023-04-24T00:07:06;97566.34;;;16.57;55.73
28267;BME280;15525;45.568;5.448;2023-04-24T00:09:32;97548.84;;;16.46;56.05
28267;BME280;15525;45.568;5.448;2023-04-24T00:11:57;97571.09;;;16.60;56.19
28267;BME280;15525;45.568;5.448;2023-04-24T00:14:23;97570.00;;;16.52;56.21
28267;BME280;15525;45.568;5.448;2023-04-24T00:16:48;97558.84;;;16.28;56.71
28267;BME280;15525;45.568;5.448;2023-04-24T00:19:14;97582.19;;;16.24;56.91
28267;BME280;15525;45.568;5.448;2023-04-24T00:21:40;97557.38;;;15.97;57.58
28267;BME280;15525;45.568;5.448;2023-04-24T00:24:06;97559.44;;;15.91;57.36
28267;BME280;15525;45.568;5.448;2023-04-24T00:26:34;97558.63;;;15.82;57.23
28267;BME280;15525;45.568;5.448;2023-04-24T00:28:59;97550.19;;;15.75;57.16
28267;BME280;15525;45.568;5.448;2023-04-24T00:31:25;97560.09;;;15.97;57.02
28267;BME280;15525;45.568;5.448;2023-04-24T00:33:50;97553.53;;;15.89;56.45
28267;BME280;15525;45.568;5.448;2023-04-24T00:36:16;97573.25;;;15.98;57.65
28267;BME280;15525;45.568;5.448;2023-04-24T00:38:41;97548.81;;;16.03;56.37
28267;BME280;15525;45.568;5.448;2023-04-24T00:41:07;97553.75;;;16.18;56.23
28267;BME280;15525;45.568;5.448;2023-04-24T00:43:32;97584.28;;;16.27;56.10
28267;BME280;15525;45.568;5.448;2023-04-24T00:45:58;97578.56;;;16.37;56.01
28267;BME280;15525;45.568;5.448;2023-04-24T00:48:25;97575.03;;;16.11;56.48
28267;BME280;15525;45.568;5.448;2023-04-24T00:50:50;97583.31;;;16.15;56.68
28267;BME280;15525;45.568;5.448;2023-04-24T00:53:16;97580.41;;;16.11;57.03
28267;BME280;15525;45.568;5.448;2023-04-24T00:55:41;97559.28;;;15.96;56.91
28267;BME280;15525;45.568;5.448;2023-04-24T00:58:07;97544.16;;;15.78;57.29
28267;BME280;15525;45.568;5.448;2023-04-24T01:00:33;97555.16;;;15.99;57.11
28267;BME280;15525;45.568;5.448;2023-04-24T01:02:59;97531.94;;;15.81;56.83
28267;BME280;15525;45.568;5.448;2023-04-24T01:05:27;97546.88;;;15.78;57.12
28267;BME280;15525;45.568;5.448;2023-04-24T01:07:52;97549.25;;;15.80;57.16
28267;BME280;15525;45.568;5.448;2023-04-24T01:10:18;97536.22;;;15.73;57.23
28267;BME280;15525;45.568;5.448;2023-04-24T01:12:45;97576.59;;;16.04;57.10
28267;BME280;15525;45.568;5.448;2023-04-24T01:15:11;97503.47;;;15.49;57.46
28267;BME280;15525;45.568;5.448;2023-04-24T01:17:36;97542.75;;;15.81;57.39
28267;BME280;15525;45.568;5.448;2023-04-24T01:20:04;97556.25;;;15.89;57.03
28267;BME280;15525;45.568;5.448;2023-04-24T01:22:30;97539.69;;;15.65;57.27
28267;BME280;15525;45.568;5.448;2023-04-24T01:24:56;97568.50;;;15.95;57.53
28267;BME280;15525;45.568;5.448;2023-04-24T01:27:22;97539.09;;;15.85;57.08
28267;BME280;15525;45.568;5.448;2023-04-24T01:29:48;97538.81;;;15.95;56.50
28267;BME280;15525;45.568;5.448;2023-04-24T01:32:14;97529.44;;;16.01;56.70
28267;BME280;15525;45.568;5.448;2023-04-24T01:34:40;97527.22;;;16.03;56.48
28267;BME280;15525;45.568;5.448;2023-04-24T01:37:06;97554.03;;;15.91;57.39
28267;BME280;15525;45.568;5.448;2023-04-24T01:39:32;97551.53;;;16.12;56.63
28267;BME280;15525;45.568;5.448;2023-04-24T01:41:59;97536.56;;;15.97;56.91
28267;BME280;15525;45.568;5.448;2023-04-24T01:44:26;97548.03;;;16.11;56.75
28267;BME280;15525;45.568;5.448;2023-04-24T01:46:51;97512.13;;;15.94;56.45
28267;BME280;15525;45.568;5.448;2023-04-24T01:49:19;97562.63;;;16.10;56.81
28267;BME280;15525;45.568;5.448;2023-04-24T01:51:45;97548.63;;;15.91;57.13
28267;BME280;15525;45.568;5.448;2023-04-24T01:54:11;97534.66;;;15.89;56.66
28267;BME280;15525;45.568;5.448;2023-04-24T01:56:40;97549.09;;;15.85;57.31
28267;BME280;15525;45.568;5.448;2023-04-24T01:59:07;97521.03;;;15.94;56.57
28267;BME280;15525;45.568;5.448;2023-04-24T02:01:37;97558.81;;;16.03;56.60
28267;BME280;15525;45.568;5.448;2023-04-24T02:04:04;97553.88;;;15.96;56.79
28267;BME280;15525;45.568;5.448;2023-04-24T02:06:29;97543.25;;;15.91;57.03
28267;BME280;15525;45.568;5.448;2023-04-24T02:08:57;97562.16;;;16.08;56.74
28267;BME280;15525;45.568;5.448;2023-04-24T02:11:22;97543.13;;;16.13;56.44
28267;BME280;15525;45.568;5.448;2023-04-24T02:13:48;97563.47;;;16.36;56.37
28267;BME280;15525;45.568;5.448;2023-04-24T02:16:13;97552.63;;;16.28;56.63
28267;BME280;15525;45.568;5.448;2023-04-24T02:18:39;97527.06;;;16.08;56.52
28267;BME280;15525;45.568;5.448;2023-04-24T02:21:04;97526.09;;;15.87;56.53
28267;BME280;15525;45.568;5.448;2023-04-24T02:23:30;97563.91;;;16.04;57.29
28267;BME280;15525;45.568;5.448;2023-04-24T02:25:55;97561.22;;;16.04;56.88
28267;BME280;15525;45.568;5.448;2023-04-24T02:28:21;97549.91;;;16.02;56.78
28267;BME280;15525;45.568;5.448;2023-04-24T02:30:46;97565.34;;;16.19;56.62
28267;BME280;15525;45.568;5.448;2023-04-24T02:33:12;97572.34;;;16.20;56.95
28267;BME280;15525;45.568;5.448;2023-04-24T02:35:37;97566.00;;;16.16;56.71
28267;BME280;15525;45.568;5.448;2023-04-24T02:38:03;97581.72;;;16.22;56.81
28267;BME280;15525;45.568;5.448;2023-04-24T02:40:29;97550.25;;;16.01;56.84
28267;BME280;15525;45.568;5.448;2023-04-24T02:42:55;97549.91;;;16.02;56.69
28267;BME280;15525;45.568;5.448;2023-04-24T02:45:20;97562.03;;;16.13;56.96
28267;BME280;15525;45.568;5.448;2023-04-24T02:47:46;97554.38;;;16.15;56.68
28267;BME280;15525;45.568;5.448;2023-04-24T02:50:11;97559.31;;;16.13;56.82
28267;BME280;15525;45.568;5.448;2023-04-24T02:52:37;97564.06;;;16.08;57.28
28267;BME280;15525;45.568;5.448;2023-04-24T02:55:02;97559.28;;;16.05;57.11
28267;BME280;15525;45.568;5.448;2023-04-24T02:57:28;97552.78;;;15.97;57.21
28267;BME280;15525;45.568;5.448;2023-04-24T02:59:53;97552.63;;;15.94;57.32
28267;BME280;15525;45.568;5.448;2023-04-24T03:02:19;97537.94;;;15.69;57.79
28267;BME280;15525;45.568;5.448;2023-04-24T03:04:45;97543.03;;;15.79;57.24
28267;BME280;15525;45.568;5.448;2023-04-24T03:07:13;97561.78;;;15.84;57.08
28267;BME280;15525;45.568;5.448;2023-04-24T03:09:40;97563.81;;;15.31;58.10
28267;BME280;15525;45.568;5.448;2023-04-24T03:12:05;97560.06;;;15.41;57.66
28267;BME280;15525;45.568;5.448;2023-04-24T03:14:31;97567.69;;;15.39;57.92
28267;BME280;15525;45.568;5.448;2023-04-24T03:16:57;97583.97;;;15.64;57.32
28267;BME280;15525;45.568;5.448;2023-04-24T03:19:22;97556.50;;;15.62;57.02
28267;BME280;15525;45.568;5.448;2023-04-24T03:21:48;97520.44;;;15.50;56.77
28267;BME280;15525;45.568;5.448;2023-04-24T03:24:14;97546.03;;;15.69;56.29
28267;BME280;15525;45.568;5.448;2023-04-24T03:26:39;97556.44;;;15.45;57.33
28267;BME280;15525;45.568;5.448;2023-04-24T03:29:04;97527.50;;;15.29;57.11
28267;BME280;15525;45.568;5.448;2023-04-24T03:31:30;97537.97;;;15.30;57.35
28267;BME280;15525;45.568;5.448;2023-04-24T03:33:56;97531.88;;;15.55;56.52
28267;BME280;15525;45.568;5.448;2023-04-24T03:36:22;97547.31;;;15.72;56.29
28267;BME280;15525;45.568;5.448;2023-04-24T03:38:47;97553.22;;;15.74;56.69
28267;BME280;15525;45.568;5.448;2023-04-24T03:41:13;97515.09;;;15.58;56.88
28267;BME280;15525;45.568;5.448;2023-04-24T03:43:38;97540.31;;;15.62;56.50
28267;BME280;15525;45.568;5.448;2023-04-24T03:46:04;97570.94;;;15.27;57.63
28267;BME280;15525;45.568;5.448;2023-04-24T03:48:29;97548.84;;;15.17;57.68
28267;BME280;15525;45.568;5.448;2023-04-24T03:50:55;97588.47;;;15.38;57.21
28267;BME280;15525;45.568;5.448;2023-04-24T03:53:21;97580.69;;;15.37;56.95
28267;BME280;15525;45.568;5.448;2023-04-24T03:55:46;97574.53;;;15.45;56.93
28267;BME280;15525;45.568;5.448;2023-04-24T03:58:12;97580.59;;;15.59;57.01
28267;BME280;15525;45.568;5.448;2023-04-24T04:00:39;97573.38;;;15.76;56.88
28267;BME280;15525;45.568;5.448;2023-04-24T04:03:05;97574.97;;;15.86;56.92
28267;BME280;15525;45.568;5.448;2023-04-24T04:05:31;97568.66;;;15.90;57.13
28267;BME280;15525;45.568;5.448;2023-04-24T04:07:56;97574.38;;;15.97;56.88
28267;BME280;15525;45.568;5.448;2023-04-24T04:10:22;97557.34;;;15.88;57.21
28267;BME280;15525;45.568;5.448;2023-04-24T04:12:47;97572.88;;;15.66;57.54
28267;BME280;15525;45.568;5.448;2023-04-24T04:15:13;97584.34;;;15.41;58.65
28267;BME280;15525;45.568;5.448;2023-04-24T04:17:38;97581.47;;;15.37;58.36
28267;BME280;15525;45.568;5.448;2023-04-24T04:20:04;97584.84;;;15.43;58.68
28267;BME280;15525;45.568;5.448;2023-04-24T04:22:35;97613.78;;;15.59;59.01
28267;BME280;15525;45.568;5.448;2023-04-24T04:25:01;97608.44;;;15.37;59.09
28267;BME280;15525;45.568;5.448;2023-04-24T04:27:26;97623.75;;;15.28;59.67
28267;BME280;15525;45.568;5.448;2023-04-24T04:29:53;97622.16;;;15.49;58.73
28267;BME280;15525;45.568;5.448;2023-04-24T04:32:19;97638.41;;;15.66;58.88
28267;BME280;15525;45.568;5.448;2023-04-24T04:34:44;97629.69;;;15.69;58.44
28267;BME280;15525;45.568;5.448;2023-04-24T04:37:11;97614.31;;;15.78;57.66
28267;BME280;15525;45.568;5.448;2023-04-24T04:39:37;97611.19;;;15.93;57.84
28267;BME280;15525;45.568;5.448;2023-04-24T04:42:03;97644.00;;;16.17;57.81
28267;BME280;15525;45.568;5.448;2023-04-24T04:44:29;97643.34;;;16.20;57.53
28267;BME280;15525;45.568;5.448;2023-04-24T04:46:55;97652.56;;;16.19;57.95
28267;BME280;15525;45.568;5.448;2023-04-24T04:49:21;97645.81;;;16.00;58.22
28267;BME280;15525;45.568;5.448;2023-04-24T04:51:48;97653.16;;;15.99;58.02
28267;BME280;15525;45.568;5.448;2023-04-24T04:54:14;97671.69;;;15.92;58.31
28267;BME280;15525;45.568;5.448;2023-04-24T04:56:40;97674.78;;;15.69;58.91
28267;BME280;15525;45.568;5.448;2023-04-24T04:59:06;97701.81;;;15.77;58.93
28267;BME280;15525;45.568;5.448;2023-04-24T05:01:32;97701.81;;;15.77;59.69
28267;BME280;15525;45.568;5.448;2023-04-24T05:03:58;97699.38;;;15.67;59.31
28267;BME280;15525;45.568;5.448;2023-04-24T05:06:23;97727.97;;;15.77;59.46
28267;BME280;15525;45.568;5.448;2023-04-24T05:08:49;97705.41;;;15.42;59.92
28267;BME280;15525;45.568;5.448;2023-04-24T05:11:15;97722.00;;;15.58;59.47
28267;BME280;15525;45.568;5.448;2023-04-24T05:13:40;97732.50;;;15.59;59.76
28267;BME280;15525;45.568;5.448;2023-04-24T05:16:06;97722.56;;;15.46;60.23
28267;BME280;15525;45.568;5.448;2023-04-24T05:18:31;97693.66;;;15.16;60.06
28267;BME280;15525;45.568;5.448;2023-04-24T05:20:57;97696.44;;;14.89;61.48
28267;BME280;15525;45.568;5.448;2023-04-24T05:23:22;97725.78;;;15.13;61.16
28267;BME280;15525;45.568;5.448;2023-04-24T05:25:48;97745.59;;;15.08;61.56
28267;BME280;15525;45.568;5.448;2023-04-24T05:28:13;97725.84;;;14.99;61.32
28267;BME280;15525;45.568;5.448;2023-04-24T05:30:39;97746.94;;;15.19;61.00
28267;BME280;15525;45.568;5.448;2023-04-24T05:33:04;97739.94;;;14.96;61.25
28267;BME280;15525;45.568;5.448;2023-04-24T05:35:30;97744.56;;;14.82;62.17
28267;BME280;15525;45.568;5.448;2023-04-24T05:37:56;97761.22;;;15.20;61.35
28267;BME280;15525;45.568;5.448;2023-04-24T05:40:21;97764.47;;;15.30;60.61
28267;BME280;15525;45.568;5.448;2023-04-24T05:42:47;97765.13;;;15.49;60.43
28267;BME280;15525;45.568;5.448;2023-04-24T05:45:13;97743.69;;;15.44;60.62
28267;BME280;15525;45.568;5.448;2023-04-24T05:47:42;97756.94;;;15.63;59.95
28267;BME280;15525;45.568;5.448;2023-04-24T05:50:09;97775.06;;;15.62;60.35
28267;BME280;15525;45.568;5.448;2023-04-24T05:52:35;97752.84;;;15.43;60.31
28267;BME280;15525;45.568;5.448;2023-04-24T05:55:00;97758.25;;;15.43;60.62
28267;BME280;15525;45.568;5.448;2023-04-24T05:57:26;97774.97;;;15.54;60.29
28267;BME280;15525;45.568;5.448;2023-04-24T05:59:51;97767.19;;;15.52;60.56
28267;BME280;15525;45.568;5.448;2023-04-24T06:02:17;97775.09;;;15.49;60.72
28267;BME280;15525;45.568;5.448;2023-04-24T06:04:42;97785.41;;;15.47;60.88
28267;BME280;15525;45.568;5.448;2023-04-24T06:07:10;97804.53;;;15.59;61.35
28267;BME280;15525;45.568;5.448;2023-04-24T06:09:36;97799.22;;;15.67;61.01
28267;BME280;15525;45.568;5.448;2023-04-24T06:12:02;97793.44;;;15.60;60.85
28267;BME280;15525;45.568;5.448;2023-04-24T06:14:27;97790.00;;;15.46;60.73
28267;BME280;15525;45.568;5.448;2023-04-24T06:16:53;97807.91;;;15.64;60.84
28267;BME280;15525;45.568;5.448;2023-04-24T06:19:18;97738.88;;;15.41;60.39
28267;BME280;15525;45.568;5.448;2023-04-24T06:21:44;97780.50;;;15.71;60.79
28267;BME280;15525;45.568;5.448;2023-04-24T06:24:09;97799.53;;;15.66;60.84
28267;BME280;15525;45.568;5.448;2023-04-24T06:26:35;97807.47;;;15.71;60.70
28267;BME280;15525;45.568;5.448;2023-04-24T06:29:00;97829.84;;;15.93;60.20
28267;BME280;15525;45.568;5.448;2023-04-24T06:31:26;97818.72;;;15.86;60.66
28267;BME280;15525;45.568;5.448;2023-04-24T06:33:51;97814.47;;;15.94;60.37
28267;BME280;15525;45.568;5.448;2023-04-24T06:36:17;97803.47;;;16.12;59.83
28267;BME280;15525;45.568;5.448;2023-04-24T06:38:42;97823.13;;;16.13;59.63
28267;BME280;15525;45.568;5.448;2023-04-24T06:41:07;97814.47;;;15.72;60.68
28267;BME280;15525;45.568;5.448;2023-04-24T06:43:33;97835.22;;;16.15;60.08
28267;BME280;15525;45.568;5.448;2023-04-24T06:46:00;97817.00;;;16.21;59.79
28267;BME280;15525;45.568;5.448;2023-04-24T06:48:25;97842.72;;;16.40;59.61
28267;BME280;15525;45.568;5.448;2023-04-24T06:50:51;97841.44;;;16.16;59.44
28267;BME280;15525;45.568;5.448;2023-04-24T06:53:17;97854.00;;;16.20;60.09
28267;BME280;15525;45.568;5.448;2023-04-24T06:55:42;97833.38;;;16.24;59.52
28267;BME280;15525;45.568;5.448;2023-04-24T06:58:10;97848.16;;;16.57;59.07
28267;BME280;15525;45.568;5.448;2023-04-24T07:00:36;97863.09;;;16.94;58.62
28267;BME280;15525;45.568;5.448;2023-04-24T07:03:01;97849.03;;;16.75;58.78
28267;BME280;15525;45.568;5.448;2023-04-24T07:05:27;97841.25;;;16.82;58.49
28267;BME280;15525;45.568;5.448;2023-04-24T07:07:53;97852.94;;;16.99;58.20
28267;BME280;15525;45.568;5.448;2023-04-24T07:10:18;97829.56;;;17.12;57.73
28267;BME280;15525;45.568;5.448;2023-04-24T07:12:45;97834.72;;;17.47;57.25
28267;BME280;15525;45.568;5.448;2023-04-24T07:15:11;97835.66;;;17.60;56.79
28267;BME280;15525;45.568;5.448;2023-04-24T07:17:37;97867.13;;;17.30;56.75
28267;BME280;15525;45.568;5.448;2023-04-24T07:20:04;97875.41;;;17.25;56.54
28267;BME280;15525;45.568;5.448;2023-04-24T07:22:30;97878.41;;;17.24;56.17
28267;BME280;15525;45.568;5.448;2023-04-24T07:24:56;97867.88;;;17.05;55.61
28267;BME280;15525;45.568;5.448;2023-04-24T07:27:21;97845.69;;;17.42;54.38
28267;BME280;15525;45.568;5.448;2023-04-24T07:29:46;97866.06;;;17.74;53.52
28267;BME280;15525;45.568;5.448;2023-04-24T07:32:12;97858.44;;;17.59;53.58
28267;BME280;15525;45.568;5.448;2023-04-24T07:34:37;97894.25;;;17.47;53.46
28267;BME280;15525;45.568;5.448;2023-04-24T07:37:03;97813.34;;;17.71;52.26
28267;BME280;15525;45.568;5.448;2023-04-24T07:39:28;97878.59;;;18.46;51.49
28267;BME280;15525;45.568;5.448;2023-04-24T07:41:54;97878.16;;;17.76;52.48
28267;BME280;15525;45.568;5.448;2023-04-24T07:44:19;97880.44;;;17.66;52.33
28267;BME280;15525;45.568;5.448;2023-04-24T07:46:45;97866.88;;;17.40;52.26
28267;BME280;15525;45.568;5.448;2023-04-24T07:49:11;97863.00;;;17.24;52.88
28267;BME280;15525;45.568;5.448;2023-04-24T07:51:36;97877.28;;;17.16;51.74
28267;BME280;15525;45.568;5.448;2023-04-24T07:54:04;97875.00;;;17.40;51.83
28267;BME280;15525;45.568;5.448;2023-04-24T07:56:30;97898.16;;;17.24;51.72
28267;BME280;15525;45.568;5.448;2023-04-24T07:58:56;97898.34;;;17.36;50.77
28267;BME280;15525;45.568;5.448;2023-04-24T08:01:21;97902.38;;;17.73;50.05
28267;BME280;15525;45.568;5.448;2023-04-24T08:03:47;97910.03;;;18.76;48.31
28267;BME280;15525;45.568;5.448;2023-04-24T08:06:12;97890.88;;;19.19;47.07
28267;BME280;15525;45.568;5.448;2023-04-24T08:08:38;97876.88;;;19.08;47.25
28267;BME280;15525;45.568;5.448;2023-04-24T08:11:03;97894.00;;;18.54;46.62
28267;BME280;15525;45.568;5.448;2023-04-24T08:13:28;97895.19;;;18.36;48.06
28267;BME280;15525;45.568;5.448;2023-04-24T08:15:54;97889.16;;;18.05;48.36
28267;BME280;15525;45.568;5.448;2023-04-24T08:18:19;97897.97;;;18.65;46.77
28267;BME280;15525;45.568;5.448;2023-04-24T08:20:45;97883.00;;;18.97;46.70
28267;BME280;15525;45.568;5.448;2023-04-24T08:23:10;97876.88;;;18.79;46.71
28267;BME280;15525;45.568;5.448;2023-04-24T08:25:36;97892.03;;;17.92;47.59
28267;BME280;15525;45.568;5.448;2023-04-24T08:28:06;97900.81;;;17.89;47.30
28267;BME280;15525;45.568;5.448;2023-04-24T08:30:31;97896.16;;;18.15;47.41
28267;BME280;15525;45.568;5.448;2023-04-24T08:32:57;97920.09;;;18.04;47.70
28267;BME280;15525;45.568;5.448;2023-04-24T08:35:23;97905.09;;;18.07;47.43
28267;BME280;15525;45.568;5.448;2023-04-24T08:37:48;97920.38;;;18.11;46.67
28267;BME280;15525;45.568;5.448;2023-04-24T08:40:16;97885.16;;;18.11;46.22
28267;BME280;15525;45.568;5.448;2023-04-24T08:42:43;97926.22;;;18.56;45.76
28267;BME280;15525;45.568;5.448;2023-04-24T08:45:10;97932.13;;;18.58;46.03
28267;BME280;15525;45.568;5.448;2023-04-24T08:47:38;97934.72;;;18.37;45.93
28267;BME280;15525;45.568;5.448;2023-04-24T08:50:03;97919.72;;;18.48;45.75
28267;BME280;15525;45.568;5.448;2023-04-24T08:52:32;97921.38;;;19.24;44.49
28267;BME280;15525;45.568;5.448;2023-04-24T08:54:59;97906.69;;;20.07;43.30
28267;BME280;15525;45.568;5.448;2023-04-24T08:57:25;97907.28;;;20.33;42.98
28267;BME280;15525;45.568;5.448;2023-04-24T08:59:51;97908.03;;;20.01;43.42
28267;BME280;15525;45.568;5.448;2023-04-24T09:02:17;97919.28;;;19.50;43.99
28267;BME280;15525;45.568;5.448;2023-04-24T09:04:44;97904.69;;;18.97;44.89
28267;BME280;15525;45.568;5.448;2023-04-24T09:07:12;97906.75;;;19.37;44.55
28267;BME280;15525;45.568;5.448;2023-04-24T09:09:38;97897.75;;;19.45;44.05
28267;BME280;15525;45.568;5.448;2023-04-24T09:12:04;97920.50;;;19.61;43.85
28267;BME280;15525;45.568;5.448;2023-04-24T09:14:29;97908.91;;;19.23;44.40
28267;BME280;15525;45.568;5.448;2023-04-24T09:16:57;97910.34;;;19.50;43.81
28267;BME280;15525;45.568;5.448;2023-04-24T09:19:22;97888.66;;;20.23;42.73
28267;BME280;15525;45.568;5.448;2023-04-24T09:21:48;97896.72;;;21.61;40.84
28267;BME280;15525;45.568;5.448;2023-04-24T09:24:21;97910.00;;;22.41;39.26
28267;BME280;15525;45.568;5.448;2023-04-24T09:26:59;97913.66;;;22.61;38.36
28267;BME280;15525;45.568;5.448;2023-04-24T09:29:26;97923.78;;;20.94;39.39
28267;BME280;15525;45.568;5.448;2023-04-24T09:31:52;97908.91;;;20.14;41.41
28267;BME280;15525;45.568;5.448;2023-04-24T09:34:25;97908.41;;;20.32;39.68
28267;BME280;15525;45.568;5.448;2023-04-24T09:36:52;97919.47;;;20.93;40.52
28267;BME280;15525;45.568;5.448;2023-04-24T09:39:18;97913.56;;;20.58;40.75
28267;BME280;15525;45.568;5.448;2023-04-24T09:41:47;97897.03;;;20.18;40.92
28267;BME280;15525;45.568;5.448;2023-04-24T09:44:18;97908.75;;;20.75;40.15
28267;BME280;15525;45.568;5.448;2023-04-24T09:46:50;97899.19;;;20.69;40.43
28267;BME280;15525;45.568;5.448;2023-04-24T09:49:19;97910.41;;;20.23;41.19
28267;BME280;15525;45.568;5.448;2023-04-24T09:51:45;97881.72;;;20.14;41.75
28267;BME280;15525;45.568;5.448;2023-04-24T09:54:14;97914.84;;;20.60;40.83
28267;BME280;15525;45.568;5.448;2023-04-24T09:56:44;97898.09;;;20.38;40.63
28267;BME280;15525;45.568;5.448;2023-04-24T09:59:11;97913.84;;;20.32;40.96
28267;BME280;15525;45.568;5.448;2023-04-24T10:01:36;97894.56;;;20.25;41.41
28267;BME280;15525;45.568;5.448;2023-04-24T10:04:04;97909.78;;;20.38;41.12
28267;BME280;15525;45.568;5.448;2023-04-24T10:06:35;97883.19;;;20.56;38.62
28267;BME280;15525;45.568;5.448;2023-04-24T10:09:01;97900.53;;;20.51;40.43
28267;BME280;15525;45.568;5.448;2023-04-24T10:11:27;97871.13;;;20.33;40.45
28267;BME280;15525;45.568;5.448;2023-04-24T10:13:53;97903.00;;;21.01;39.64
28267;BME280;15525;45.568;5.448;2023-04-24T10:16:20;97897.34;;;21.06;39.42
28267;BME280;15525;45.568;5.448;2023-04-24T10:18:48;97864.84;;;22.01;38.25
28267;BME280;15525;45.568;5.448;2023-04-24T10:21:14;97883.28;;;22.19;37.04
28267;BME280;15525;45.568;5.448;2023-04-24T10:23:41;97888.81;;;22.23;37.53
28267;BME280;15525;45.568;5.448;2023-04-24T10:26:12;97874.50;;;22.69;36.69
28267;BME280;15525;45.568;5.448;2023-04-24T10:28:44;97877.13;;;23.12;35.33
28267;BME280;15525;45.568;5.448;2023-04-24T10:31:10;97876.78;;;23.63;35.36
28267;BME280;15525;45.568;5.448;2023-04-24T10:33:38;97880.03;;;23.69;35.30
28267;BME280;15525;45.568;5.448;2023-04-24T10:36:04;97885.50;;;23.03;36.22
28267;BME280;15525;45.568;5.448;2023-04-24T10:38:30;97877.13;;;22.50;37.48
28267;BME280;15525;45.568;5.448;2023-04-24T10:41:10;97882.84;;;21.78;36.62
28267;BME280;15525;45.568;5.448;2023-04-24T10:43:39;97906.44;;;21.10;38.92
28267;BME280;15525;45.568;5.448;2023-04-24T10:46:06;97900.25;;;20.77;38.71
28267;BME280;15525;45.568;5.448;2023-04-24T10:48:32;97884.78;;;20.57;39.58
28267;BME280;15525;45.568;5.448;2023-04-24T10:50:57;97887.03;;;20.43;39.51
28267;BME280;15525;45.568;5.448;2023-04-24T10:53:27;97885.13;;;20.55;39.46
28267;BME280;15525;45.568;5.448;2023-04-24T10:56:02;97897.22;;;21.15;37.91
28267;BME280;15525;45.568;5.448;2023-04-24T10:58:50;97889.53;;;22.94;35.87
28267;BME280;15525;45.568;5.448;2023-04-24T11:01:25;97886.09;;;23.78;34.33
28267;BME280;15525;45.568;5.448;2023-04-24T11:03:57;97862.25;;;24.13;34.96
28267;BME280;15525;45.568;5.448;2023-04-24T11:06:34;97881.13;;;25.04;34.88
28267;BME280;15525;45.568;5.448;2023-04-24T11:09:07;97870.75;;;25.39;35.73
28267;BME280;15525;45.568;5.448;2023-04-24T11:11:34;97869.06;;;25.87;34.24
28267;BME280;15525;45.568;5.448;2023-04-24T11:14:01;97867.88;;;25.88;33.69
28267;BME280;15525;45.568;5.448;2023-04-24T11:27:11;97873.53;;;22.92;35.12
28267;BME280;15525;45.568;5.448;2023-04-24T11:29:39;97869.09;;;22.41;37.10
28267;BME280;15525;45.568;5.448;2023-04-24T11:34:45;97840.13;;;21.94;36.08
28267;BME280;15525;45.568;5.448;2023-04-24T11:37:12;97850.00;;;22.41;36.29
28267;BME280;15525;45.568;5.448;2023-04-24T11:39:38;97836.97;;;23.47;34.91
28267;BME280;15525;45.568;5.448;2023-04-24T11:42:04;97831.13;;;24.62;34.39
28267;BME280;15525;45.568;5.448;2023-04-24T11:44:33;97826.59;;;25.48;32.99
28267;BME280;15525;45.568;5.448;2023-04-24T11:46:59;97812.16;;;25.51;32.46
28267;BME280;15525;45.568;5.448;2023-04-24T11:49:25;97825.72;;;25.99;32.66
28267;BME280;15525;45.568;5.448;2023-04-24T11:51:55;97829.81;;;25.83;29.38
28267;BME280;15525;45.568;5.448;2023-04-24T11:54:20;97834.66;;;25.93;32.10
28267;BME280;15525;45.568;5.448;2023-04-24T11:56:47;97846.16;;;25.76;32.11
28267;BME280;15525;45.568;5.448;2023-04-24T11:59:12;97841.44;;;25.21;32.13
28267;BME280;15525;45.568;5.448;2023-04-24T12:01:47;97845.91;;;25.06;30.20
28267;BME280;15525;45.568;5.448;2023-04-24T12:04:14;97833.34;;;25.02;31.21
28267;BME280;15525;45.568;5.448;2023-04-24T12:06:40;97827.13;;;24.82;32.67
28267;BME280;15525;45.568;5.448;2023-04-24T12:09:05;97830.69;;;24.41;32.96
28267;BME280;15525;45.568;5.448;2023-04-24T12:11:32;97825.19;;;23.43;34.44
28267;BME280;15525;45.568;5.448;2023-04-24T12:13:57;97823.63;;;23.61;35.12
28267;BME280;15525;45.568;5.448;2023-04-24T12:16:24;97831.06;;;23.79;34.52
28267;BME280;15525;45.568;5.448;2023-04-24T12:18:51;97821.53;;;23.73;34.76
28267;BME280;15525;45.568;5.448;2023-04-24T12:21:21;97840.47;;;23.82;34.39
28267;BME280;15525;45.568;5.448;2023-04-24T12:23:47;97811.91;;;23.79;34.97
28267;BME280;15525;45.568;5.448;2023-04-24T12:26:17;97831.41;;;24.16;33.66
28267;BME280;15525;45.568;5.448;2023-04-24T12:28:43;97836.44;;;24.33;33.51
28267;BME280;15525;45.568;5.448;2023-04-24T12:31:11;97835.16;;;24.49;32.36
28267;BME280;15525;45.568;5.448;2023-04-24T12:33:36;97828.16;;;23.72;32.91
28267;BME280;15525;45.568;5.448;2023-04-24T12:36:02;97837.94;;;23.20;32.99
28267;BME280;15525;45.568;5.448;2023-04-24T12:38:28;97824.38;;;23.77;32.42
28267;BME280;15525;45.568;5.448;2023-04-24T12:41:10;97831.34;;;25.51;32.70
28267;BME280;15525;45.568;5.448;2023-04-24T12:43:36;97827.84;;;26.53;30.97
28267;BME280;15525;45.568;5.448;2023-04-24T12:46:02;97833.13;;;26.68;30.93
28267;BME280;15525;45.568;5.448;2023-04-24T12:48:28;97813.78;;;27.01;30.95
28267;BME280;15525;45.568;5.448;2023-04-24T12:50:54;97822.34;;;26.13;31.49
28267;BME280;15525;45.568;5.448;2023-04-24T12:53:21;97840.09;;;26.22;31.60
28267;BME280;15525;45.568;5.448;2023-04-24T12:55:47;97818.75;;;25.46;31.21
28267;BME280;15525;45.568;5.448;2023-04-24T12:58:21;97837.72;;;25.32;31.92
28267;BME280;15525;45.568;5.448;2023-04-24T13:00:47;97821.47;;;24.72;32.46
28267;BME280;15525;45.568;5.448;2023-04-24T13:03:12;97809.66;;;24.45;32.57
28267;BME280;15525;45.568;5.448;2023-04-24T13:05:38;97811.41;;;25.54;30.80
28267;BME280;15525;45.568;5.448;2023-04-24T13:08:03;97801.34;;;26.31;29.85
28267;BME280;15525;45.568;5.448;2023-04-24T13:10:29;97797.97;;;25.75;29.77